Time;durP1;ratioP1;P1;durP2;ratioP2;P2;SDS_P1;SDS_P2;PMS_P1;PMS_P2;Temp;Humidity;BMP_temperature;BMP_pressure;BME280_temperature;BME280_humidity;BME280_pressure;Samples;Min_cycle;Max_cycle;Signal;HPM_P1;HPM_P2
2023/07/04 00:00:24;;;;;;;23.13;20.85;;;;;;;;;;5053386;28;20484;-53
2023/07/04 00:02:50;;;;;;;23.48;21.27;;;;;;;;;;5053362;28;20045;-55
2023/07/04 00:05:16;;;;;;;23.70;21.50;;;;;;;;;;5052960;28;20029;-54
2023/07/04 00:07:42;;;;;;;23.70;21.38;;;;;;;;;;5035359;28;20021;-53
2023/07/04 00:10:09;;;;;;;25.27;22.40;;;;;;;;;;5053370;28;20036;-56
2023/07/04 00:12:35;;;;;;;23.25;21.25;;;;;;;;;;5053139;28;20021;-54
2023/07/04 00:15:01;;;;;;;21.85;19.65;;;;;;;;;;5053094;28;20025;-55
2023/07/04 00:17:27;;;;;;;18.38;16.40;;;;;;;;;;5035308;28;20032;-54
2023/07/04 00:19:53;;;;;;;19.20;16.05;;;;;;;;;;5053032;28;20021;-54
2023/07/04 00:22:20;;;;;;;18.15;15.75;;;;;;;;;;5053240;28;20028;-56
2023/07/04 00:24:47;;;;;;;20.80;15.20;;;;;;;;;;5052602;28;20499;-53
2023/07/04 00:27:13;;;;;;;19.00;14.65;;;;;;;;;;5053060;28;20025;-55
2023/07/04 00:29:40;;;;;;;17.20;14.57;;;;;;;;;;5035130;28;20036;-53
2023/07/04 00:32:07;;;;;;;17.65;14.30;;;;;;;;;;5053006;28;20017;-55
2023/07/04 00:34:34;;;;;;;17.33;12.98;;;;;;;;;;5034876;28;20029;-58
2023/07/04 00:37:00;;;;;;;16.88;13.60;;;;;;;;;;5052942;28;20099;-57
2023/07/04 00:39:29;;;;;;;17.05;13.75;;;;;;;;;;5052927;28;20104;-54
2023/07/04 00:41:56;;;;;;;17.33;12.77;;;;;;;;;;5052838;28;20082;-55
2023/07/04 00:44:24;;;;;;;16.23;12.93;;;;;;;;;;5052053;28;20400;-56
2023/07/04 00:47:10;;;;;;;16.27;12.70;;;;;;;;;;5052746;28;20484;-55
2023/07/04 00:49:43;;;;;;;16.33;12.02;;;;;;;;;;5052638;28;20028;-57
2023/07/04 00:52:12;;;;;;;17.15;12.35;;;;;;;;;;5052269;28;20059;-58
2023/07/04 00:54:40;;;;;;;15.55;11.05;;;;;;;;;;5034408;28;20111;-54
2023/07/04 00:57:07;;;;;;;16.50;11.57;;;;;;;;;;5052399;28;20082;-56
2023/07/04 00:59:34;;;;;;;17.33;12.20;;;;;;;;;;5052768;28;20025;-54
2023/07/04 01:02:00;;;;;;;17.45;11.02;;;;;;;;;;5046893;28;20049;-56
2023/07/04 01:04:26;;;;;;;16.00;10.32;;;;;;;;;;5043372;28;20025;-57
2023/07/04 01:06:58;;;;;;;18.33;10.23;;;;;;;;;;5048814;28;20017;-57
2023/07/04 01:09:24;;;;;;;18.00;11.02;;;;;;;;;;5051195;28;20051;-55
2023/07/04 01:11:52;;;;;;;15.55;10.13;;;;;;;;;;5043588;28;20078;-50
2023/07/04 01:14:24;;;;;;;16.45;10.30;;;;;;;;;;5051803;28;20028;-52
2023/07/04 01:16:50;;;;;;;16.52;11.35;;;;;;;;;;5052011;28;20600;-56
2023/07/04 01:19:20;;;;;;;17.40;11.20;;;;;;;;;;5026984;28;20120;-53
2023/07/04 01:21:48;;;;;;;18.70;10.82;;;;;;;;;;5039891;28;20481;-56
2023/07/04 01:24:27;;;;;;;19.95;13.75;;;;;;;;;;5031775;28;20033;-55
2023/07/04 01:26:53;;;;;;;17.05;14.40;;;;;;;;;;5046296;28;20104;-55
2023/07/04 01:29:19;;;;;;;19.20;16.13;;;;;;;;;;5047621;28;20059;-54
2023/07/04 01:31:46;;;;;;;18.83;16.92;;;;;;;;;;5051801;28;20022;-58
2023/07/04 01:34:13;;;;;;;18.85;16.85;;;;;;;;;;5051452;28;20493;-57
2023/07/04 01:36:41;;;;;;;19.52;16.67;;;;;;;;;;5051772;28;20182;-57
2023/07/04 01:39:08;;;;;;;21.50;16.15;;;;;;;;;;5052007;28;20369;-53
2023/07/04 01:41:35;;;;;;;19.55;17.50;;;;;;;;;;5049542;28;20439;-52
2023/07/04 01:44:05;;;;;;;21.05;18.90;;;;;;;;;;5044515;28;20057;-54
2023/07/04 01:46:32;;;;;;;20.08;17.92;;;;;;;;;;5043361;28;20049;-55
2023/07/04 01:48:58;;;;;;;18.80;16.17;;;;;;;;;;5051570;28;20021;-56
2023/07/04 01:51:29;;;;;;;18.92;16.92;;;;;;;;;;5043082;28;20022;-56
2023/07/04 01:53:55;;;;;;;18.70;16.80;;;;;;;;;;5031418;28;20032;-54
2023/07/04 01:56:21;;;;;;;19.35;16.75;;;;;;;;;;5032689;28;20389;-53
2023/07/04 01:58:47;;;;;;;18.60;16.35;;;;;;;;;;5044381;28;20018;-55
2023/07/04 02:01:13;;;;;;;20.50;16.52;;;;;;;;;;5035382;28;20025;-56
2023/07/04 02:03:39;;;;;;;18.23;15.70;;;;;;;;;;5035619;28;20028;-56
2023/07/04 02:06:07;;;;;;;20.23;15.95;;;;;;;;;;5017615;28;20495;-55
2023/07/04 02:08:33;;;;;;;18.85;15.90;;;;;;;;;;5035495;28;20026;-56
2023/07/04 02:10:58;;;;;;;19.55;15.05;;;;;;;;;;5035351;28;20033;-57
2023/07/04 02:13:25;;;;;;;17.20;15.07;;;;;;;;;;5035540;28;20034;-57
2023/07/04 02:15:51;;;;;;;17.85;14.63;;;;;;;;;;5017532;28;20121;-56
2023/07/04 02:18:17;;;;;;;18.60;14.20;;;;;;;;;;5049308;28;20037;-57
2023/07/04 02:20:43;;;;;;;18.25;13.77;;;;;;;;;;5046972;28;20021;-55
2023/07/04 02:23:09;;;;;;;21.77;14.30;;;;;;;;;;5055140;28;20501;-57
2023/07/04 02:25:41;;;;;;;17.45;13.82;;;;;;;;;;5054913;28;20404;-56
2023/07/04 02:28:07;;;;;;;25.45;15.02;;;;;;;;;;5055157;28;20023;-53
2023/07/04 02:30:33;;;;;;;17.33;13.88;;;;;;;;;;5055039;28;20071;-57
2023/07/04 02:32:59;;;;;;;17.98;13.40;;;;;;;;;;5036933;28;20437;-54
2023/07/04 02:35:25;;;;;;;19.98;14.05;;;;;;;;;;5054790;28;20100;-56
2023/07/04 02:37:51;;;;;;;17.52;14.10;;;;;;;;;;5054832;28;20516;-57
2023/07/04 02:40:17;;;;;;;17.02;13.80;;;;;;;;;;5054928;28;20071;-55
2023/07/04 02:42:43;;;;;;;19.15;13.85;;;;;;;;;;5054872;28;20108;-58
2023/07/04 02:45:09;;;;;;;20.90;14.30;;;;;;;;;;5054484;28;20051;-54
2023/07/04 02:47:35;;;;;;;18.23;14.20;;;;;;;;;;5054921;28;20017;-55
2023/07/04 02:50:02;;;;;;;19.15;13.70;;;;;;;;;;5054813;28;20021;-57
2023/07/04 02:52:27;;;;;;;18.80;13.48;;;;;;;;;;5054435;28;20479;-51
2023/07/04 02:54:54;;;;;;;20.10;13.00;;;;;;;;;;5054388;28;20098;-58
2023/07/04 02:57:20;;;;;;;20.45;13.50;;;;;;;;;;5054486;28;20036;-54
2023/07/04 02:59:46;;;;;;;16.90;12.77;;;;;;;;;;5054597;28;20104;-56
2023/07/04 03:02:12;;;;;;;19.15;13.35;;;;;;;;;;5054321;28;20029;-55
2023/07/04 03:04:38;;;;;;;17.88;13.50;;;;;;;;;;5054182;28;20021;-57
2023/07/04 03:07:04;;;;;;;21.50;13.68;;;;;;;;;;5053046;28;20016;-56
2023/07/04 03:09:30;;;;;;;19.55;12.10;;;;;;;;;;5046775;28;20370;-53
2023/07/04 03:11:56;;;;;;;18.15;10.70;;;;;;;;;;5048031;28;20025;-56
2023/07/04 03:14:22;;;;;;;17.90;10.18;;;;;;;;;;5050448;28;20024;-56
2023/07/04 03:16:48;;;;;;;16.23;9.43;;;;;;;;;;5054655;28;20485;-54
2023/07/04 03:19:14;;;;;;;16.17;9.73;;;;;;;;;;5046233;28;20044;-58
2023/07/04 03:21:40;;;;;;;17.55;9.35;;;;;;;;;;5054131;28;20103;-57
2023/07/04 03:24:06;;;;;;;20.10;9.48;;;;;;;;;;5053984;28;20493;-54
2023/07/04 03:26:34;;;;;;;18.38;9.02;;;;;;;;;;5054448;28;20492;-57
2023/07/04 03:29:00;;;;;;;15.48;8.95;;;;;;;;;;5054035;28;20021;-54
2023/07/04 03:31:26;;;;;;;17.48;8.75;;;;;;;;;;5053938;28;20393;-54
2023/07/04 03:33:52;;;;;;;18.13;8.73;;;;;;;;;;5053615;28;20025;-56
2023/07/04 03:36:18;;;;;;;16.90;8.40;;;;;;;;;;5053402;28;20037;-56
2023/07/04 03:38:44;;;;;;;17.67;8.52;;;;;;;;;;5036014;28;20025;-58
2023/07/04 03:41:10;;;;;;;16.77;8.27;;;;;;;;;;5053522;28;20370;-57
2023/07/04 03:43:36;;;;;;;18.88;8.38;;;;;;;;;;5045253;28;20033;-54
2023/07/04 03:46:02;;;;;;;16.98;8.20;;;;;;;;;;5053318;28;20035;-57
2023/07/04 03:48:29;;;;;;;17.70;8.57;;;;;;;;;;5053728;28;20385;-59
2023/07/04 03:50:55;;;;;;;16.92;8.45;;;;;;;;;;5053981;28;20027;-57
2023/07/04 03:53:21;;;;;;;17.70;8.13;;;;;;;;;;5035862;28;20141;-59
2023/07/04 03:55:48;;;;;;;18.42;8.68;;;;;;;;;;5053427;28;20028;-55
2023/07/04 03:58:14;;;;;;;19.55;9.52;;;;;;;;;;5053452;28;20032;-55
2023/07/04 04:00:40;;;;;;;16.63;9.75;;;;;;;;;;5053142;28;20029;-56
2023/07/04 04:03:06;;;;;;;21.00;11.15;;;;;;;;;;5035349;28;20036;-58
2023/07/04 04:05:32;;;;;;;18.73;10.25;;;;;;;;;;5052796;28;20032;-56
2023/07/04 04:07:58;;;;;;;15.95;9.45;;;;;;;;;;5052895;28;20028;-52
2023/07/04 04:10:24;;;;;;;19.88;10.45;;;;;;;;;;5053172;28;20492;-57
2023/07/04 04:12:50;;;;;;;19.38;10.55;;;;;;;;;;5053007;28;20024;-58
2023/07/04 04:15:16;;;;;;;16.75;8.95;;;;;;;;;;5052554;28;20108;-56
2023/07/04 04:17:42;;;;;;;17.33;9.50;;;;;;;;;;5044829;28;20036;-56
2023/07/04 04:20:10;;;;;;;20.08;10.05;;;;;;;;;;5034275;28;20029;-54
2023/07/04 04:22:36;;;;;;;18.70;10.15;;;;;;;;;;5053050;28;20031;-54
2023/07/04 04:25:02;;;;;;;19.67;9.70;;;;;;;;;;5052822;28;20036;-54
2023/07/04 04:27:30;;;;;;;18.63;9.70;;;;;;;;;;5052980;28;20024;-56
2023/07/04 04:29:56;;;;;;;16.08;9.80;;;;;;;;;;5034637;28;20017;-57
2023/07/04 04:32:23;;;;;;;18.00;9.13;;;;;;;;;;5052385;28;20024;-58
2023/07/04 04:34:49;;;;;;;17.73;9.30;;;;;;;;;;5052467;28;20116;-57
2023/07/04 04:37:16;;;;;;;16.75;9.57;;;;;;;;;;5052770;28;20131;-57
2023/07/04 04:39:43;;;;;;;15.88;9.00;;;;;;;;;;5052516;28;20029;-58
2023/07/04 04:42:14;;;;;;;16.05;9.05;;;;;;;;;;5034832;28;20038;-58
2023/07/04 04:44:40;;;;;;;18.75;9.77;;;;;;;;;;5052077;28;20025;-55
2023/07/04 04:47:07;;;;;;;17.30;9.10;;;;;;;;;;5034478;28;20056;-52
2023/07/04 04:49:33;;;;;;;24.40;9.32;;;;;;;;;;5052137;28;20386;-53
2023/07/04 04:51:59;;;;;;;16.95;9.45;;;;;;;;;;5052174;28;20404;-52
2023/07/04 04:54:25;;;;;;;17.48;8.75;;;;;;;;;;5051952;28;20025;-55
2023/07/04 04:56:52;;;;;;;17.42;8.75;;;;;;;;;;5052430;28;20025;-56
2023/07/04 04:59:18;;;;;;;20.90;9.35;;;;;;;;;;5052178;28;20378;-55
2023/07/04 05:01:45;;;;;;;18.83;8.32;;;;;;;;;;5034204;28;20116;-55
2023/07/04 05:04:11;;;;;;;16.92;8.70;;;;;;;;;;5051797;28;20079;-57
2023/07/04 05:06:37;;;;;;;20.52;8.75;;;;;;;;;;5052377;28;20136;-57
2023/07/04 05:09:04;;;;;;;17.10;8.23;;;;;;;;;;5034055;28;20025;-54
2023/07/04 05:11:31;;;;;;;17.15;8.50;;;;;;;;;;5052035;28;20025;-54
2023/07/04 05:13:57;;;;;;;17.33;8.70;;;;;;;;;;5051654;28;20031;-55
2023/07/04 05:16:23;;;;;;;17.30;8.90;;;;;;;;;;5051882;28;20033;-51
2023/07/04 05:18:51;;;;;;;17.75;9.27;;;;;;;;;;5051749;28;20024;-55
2023/07/04 05:21:18;;;;;;;19.08;9.13;;;;;;;;;;5051838;28;20451;-56
2023/07/04 05:23:45;;;;;;;17.45;8.50;;;;;;;;;;5052392;28;20068;-57
2023/07/04 05:26:13;;;;;;;18.55;9.18;;;;;;;;;;5052387;28;20021;-58
2023/07/04 05:28:39;;;;;;;21.00;8.50;;;;;;;;;;5052727;28;20484;-59
2023/07/04 05:31:10;;;;;;;20.60;9.10;;;;;;;;;;5053263;28;20096;-59
2023/07/04 05:33:36;;;;;;;21.00;9.05;;;;;;;;;;5053754;28;20017;-56
2023/07/04 05:36:08;;;;;;;20.10;9.30;;;;;;;;;;5055918;28;20029;-56
2023/07/04 05:38:35;;;;;;;23.45;9.30;;;;;;;;;;5055394;28;20060;-60
2023/07/04 05:41:01;;;;;;;18.00;9.00;;;;;;;;;;5056552;28;20081;-56
2023/07/04 05:43:28;;;;;;;17.20;8.90;;;;;;;;;;5053876;28;20110;-55
2023/07/04 05:45:54;;;;;;;18.38;8.70;;;;;;;;;;5055013;28;20424;-53
2023/07/04 05:48:21;;;;;;;18.58;8.23;;;;;;;;;;5054357;28;20029;-55
2023/07/04 05:50:50;;;;;;;19.38;9.32;;;;;;;;;;5036614;28;20021;-55
2023/07/04 05:53:16;;;;;;;16.35;9.25;;;;;;;;;;5052655;28;20029;-54
2023/07/04 05:55:42;;;;;;;18.35;9.13;;;;;;;;;;5034287;28;20033;-55
2023/07/04 05:58:08;;;;;;;17.92;9.02;;;;;;;;;;5051141;28;20036;-56
2023/07/04 06:00:35;;;;;;;20.73;9.23;;;;;;;;;;5051444;28;20036;-53
2023/07/04 06:03:03;;;;;;;19.92;9.45;;;;;;;;;;5051337;28;20388;-52
2023/07/04 06:05:29;;;;;;;17.13;8.80;;;;;;;;;;5051110;28;20091;-52
2023/07/04 06:07:56;;;;;;;18.23;9.30;;;;;;;;;;5051277;28;20075;-55
2023/07/04 06:10:22;;;;;;;18.17;10.23;;;;;;;;;;5033325;28;20560;-56
2023/07/04 06:12:50;;;;;;;18.52;9.73;;;;;;;;;;5051044;28;20036;-57
2023/07/04 06:15:16;;;;;;;20.85;9.90;;;;;;;;;;5033073;28;20025;-56
2023/07/04 06:17:42;;;;;;;19.50;9.05;;;;;;;;;;5051193;28;20474;-58
2023/07/04 06:20:09;;;;;;;20.17;9.90;;;;;;;;;;5033133;28;20025;-52
2023/07/04 06:22:34;;;;;;;20.85;9.35;;;;;;;;;;5050899;28;20060;-54
2023/07/04 06:25:01;;;;;;;21.95;10.55;;;;;;;;;;5050617;28;20201;-56
2023/07/04 06:27:28;;;;;;;20.50;10.30;;;;;;;;;;5050969;28;20385;-55
2023/07/04 06:29:55;;;;;;;20.85;10.20;;;;;;;;;;5051043;28;20469;-55
2023/07/04 06:32:21;;;;;;;20.90;9.93;;;;;;;;;;5048000;28;21512;-53
2023/07/04 06:34:47;;;;;;;19.60;9.90;;;;;;;;;;5039927;28;20024;-53
2023/07/04 06:37:13;;;;;;;23.52;9.00;;;;;;;;;;5039246;28;20096;-56
2023/07/04 06:39:39;;;;;;;24.08;9.70;;;;;;;;;;5050745;28;20021;-50
2023/07/04 06:42:05;;;;;;;21.63;9.50;;;;;;;;;;5038234;28;20036;-51
2023/07/04 06:44:31;;;;;;;24.13;9.60;;;;;;;;;;5034120;28;20112;-54
2023/07/04 06:46:57;;;;;;;23.02;9.98;;;;;;;;;;5049323;28;20073;-55
2023/07/04 06:49:23;;;;;;;23.40;9.80;;;;;;;;;;5047537;28;20045;-54
2023/07/04 06:51:49;;;;;;;21.17;11.50;;;;;;;;;;5045267;28;20108;-56
2023/07/04 06:54:15;;;;;;;28.17;9.93;;;;;;;;;;5048954;28;20187;-55
2023/07/04 06:56:41;;;;;;;22.15;9.70;;;;;;;;;;5045936;28;20078;-55
2023/07/04 06:59:07;;;;;;;21.33;9.30;;;;;;;;;;5048231;28;20105;-55
2023/07/04 07:01:33;;;;;;;22.65;10.85;;;;;;;;;;5030443;28;20117;-54
2023/07/04 07:03:59;;;;;;;24.67;10.05;;;;;;;;;;5052490;28;20017;-58
2023/07/04 07:06:26;;;;;;;23.63;9.65;;;;;;;;;;5042508;28;20029;-55
2023/07/04 07:08:52;;;;;;;21.00;10.43;;;;;;;;;;5034161;28;20018;-53
2023/07/04 07:11:19;;;;;;;20.10;9.65;;;;;;;;;;5045235;28;20025;-55
2023/07/04 07:13:48;;;;;;;24.50;10.45;;;;;;;;;;5045624;28;20032;-56
2023/07/04 07:16:22;;;;;;;24.15;9.70;;;;;;;;;;5035986;28;20028;-55
2023/07/04 07:18:48;;;;;;;22.73;10.43;;;;;;;;;;5054056;28;20104;-55
2023/07/04 07:21:18;;;;;;;22.67;10.00;;;;;;;;;;5053922;28;20536;-55
2023/07/04 07:23:44;;;;;;;22.38;10.38;;;;;;;;;;5053523;28;20562;-54
2023/07/04 07:26:11;;;;;;;27.30;10.82;;;;;;;;;;5053102;28;20478;-56
2023/07/04 07:28:38;;;;;;;23.42;11.20;;;;;;;;;;5045406;28;20384;-56
2023/07/04 07:31:06;;;;;;;26.17;11.50;;;;;;;;;;5053538;28;20043;-54
2023/07/04 07:33:32;;;;;;;27.65;9.48;;;;;;;;;;5053552;28;20741;-57
2023/07/04 07:35:59;;;;;;;26.40;10.25;;;;;;;;;;5053032;28;20051;-54
2023/07/04 07:38:25;;;;;;;20.33;10.38;;;;;;;;;;5053506;28;20086;-56
2023/07/04 07:40:52;;;;;;;24.48;12.52;;;;;;;;;;5035327;28;20033;-57
2023/07/04 07:43:18;;;;;;;28.77;11.90;;;;;;;;;;5053370;28;20032;-55
2023/07/04 07:45:44;;;;;;;24.52;11.63;;;;;;;;;;5052926;28;20052;-57
2023/07/04 07:48:10;;;;;;;24.35;10.27;;;;;;;;;;5053267;28;20089;-63
2023/07/04 07:50:36;;;;;;;27.88;10.15;;;;;;;;;;5053035;28;20029;-51
2023/07/04 07:53:02;;;;;;;24.45;10.65;;;;;;;;;;5047406;28;20633;-53
2023/07/04 07:55:28;;;;;;;22.00;10.45;;;;;;;;;;5047388;28;20108;-48
2023/07/04 07:57:54;;;;;;;20.83;10.70;;;;;;;;;;5048880;28;20021;-46
2023/07/04 08:00:20;;;;;;;21.48;9.35;;;;;;;;;;5030912;28;20025;-49
2023/07/04 08:02:46;;;;;;;22.75;11.23;;;;;;;;;;5053177;28;20029;-49
2023/07/04 08:05:12;;;;;;;27.38;11.20;;;;;;;;;;5052681;28;20086;-50
2023/07/04 08:07:38;;;;;;;22.40;10.10;;;;;;;;;;5044577;28;20021;-50
2023/07/04 08:10:05;;;;;;;22.02;10.07;;;;;;;;;;5047206;28;20039;-51
2023/07/04 08:12:31;;;;;;;25.25;10.63;;;;;;;;;;5044815;28;20032;-47
2023/07/04 08:14:56;;;;;;;23.70;10.70;;;;;;;;;;5052714;28;20120;-50
2023/07/04 08:17:23;;;;;;;21.50;10.45;;;;;;;;;;5052776;28;20116;-50
2023/07/04 08:19:49;;;;;;;22.67;12.27;;;;;;;;;;5044361;28;20033;-48
2023/07/04 08:22:16;;;;;;;27.52;10.98;;;;;;;;;;5052559;28;20073;-51
2023/07/04 08:24:42;;;;;;;23.45;10.60;;;;;;;;;;5052314;28;20048;-48
2023/07/04 08:27:08;;;;;;;21.38;11.45;;;;;;;;;;5034445;28;20029;-51
2023/07/04 08:29:34;;;;;;;23.35;10.45;;;;;;;;;;5044137;28;20029;-44
2023/07/04 08:32:00;;;;;;;21.55;10.57;;;;;;;;;;5047172;28;20052;-50
2023/07/04 08:34:26;;;;;;;20.58;9.88;;;;;;;;;;5048437;28;20125;-49
2023/07/04 08:36:52;;;;;;;24.15;11.00;;;;;;;;;;5052126;28;20031;-51
2023/07/04 08:39:18;;;;;;;30.63;11.38;;;;;;;;;;5052181;28;20032;-48
2023/07/04 08:41:44;;;;;;;18.65;9.68;;;;;;;;;;5034395;28;20025;-50
2023/07/04 08:44:21;;;;;;;23.42;10.70;;;;;;;;;;5051684;28;20051;-45
2023/07/04 08:46:48;;;;;;;21.70;10.18;;;;;;;;;;5023238;28;20389;-50
2023/07/04 08:49:47;;;;;;;20.55;11.13;;;;;;;;;;5041188;28;20127;-47
2023/07/04 08:52:12;;;;;;;;;;;;;;;;;;4990108;28;20037;-50
2023/07/04 08:54:38;;;;;;;21.50;10.45;;;;;;;;;;5040415;28;20022;-51
2023/07/04 08:57:12;;;;;;;19.90;10.05;;;;;;;;;;5042458;28;20029;-47
2023/07/04 08:59:40;;;;;;;26.45;10.52;;;;;;;;;;5039812;28;20044;-48
2023/07/04 09:02:10;;;;;;;19.33;10.65;;;;;;;;;;5031971;28;20025;-49
2023/07/04 09:04:46;;;;;;;19.58;10.70;;;;;;;;;;5031576;28;20112;-45
2023/07/04 09:07:18;;;;;;;29.23;10.57;;;;;;;;;;5031995;28;20022;-46
2023/07/04 09:09:59;;;;;;;24.35;10.60;;;;;;;;;;5031742;28;20064;-50
2023/07/04 09:12:25;;;;;;;20.98;10.88;;;;;;;;;;5031802;28;20079;-44
2023/07/04 09:15:06;;;;;;;18.58;10.55;;;;;;;;;;5031725;28;20025;-46
2023/07/04 09:17:38;;;;;;;17.48;10.40;;;;;;;;;;5032065;28;20045;-48
2023/07/04 09:20:08;;;;;;;20.02;11.20;;;;;;;;;;5032002;28;20105;-47
2023/07/04 09:22:35;;;;;;;19.85;10.57;;;;;;;;;;5031707;28;20156;-49
2023/07/04 09:25:02;;;;;;;18.20;10.82;;;;;;;;;;5036879;28;20059;-48
2023/07/04 09:27:29;;;;;;;18.30;10.43;;;;;;;;;;5051004;28;20025;-47
2023/07/04 09:29:56;;;;;;;18.77;10.63;;;;;;;;;;5043696;28;20021;-46
2023/07/04 09:32:22;;;;;;;22.30;11.68;;;;;;;;;;5051470;28;20025;-47
2023/07/04 09:34:53;;;;;;;18.77;11.57;;;;;;;;;;5042680;28;20104;-48
2023/07/04 09:37:20;;;;;;;20.75;12.40;;;;;;;;;;5043185;28;20070;-46
2023/07/04 09:39:56;;;;;;;18.17;11.98;;;;;;;;;;5051523;28;20100;-48
2023/07/04 09:42:38;;;;;;;22.42;12.02;;;;;;;;;;5051545;28;20529;-50
2023/07/04 09:45:08;;;;;;;22.90;12.35;;;;;;;;;;5051094;28;20043;-45
2023/07/04 09:47:36;;;;;;;21.42;11.35;;;;;;;;;;5051439;28;20076;-48
2023/07/04 09:50:16;;;;;;;19.98;12.38;;;;;;;;;;5033536;28;20426;-46
2023/07/04 09:52:42;;;;;;;17.58;11.02;;;;;;;;;;5051013;28;20123;-48
2023/07/04 09:55:08;;;;;;;21.52;12.95;;;;;;;;;;5051274;28;20485;-51
2023/07/04 09:57:34;;;;;;;19.88;12.70;;;;;;;;;;5051550;28;20021;-49
2023/07/04 10:00:15;;;;;;;18.85;12.13;;;;;;;;;;5051390;28;20055;-49
2023/07/04 10:02:42;;;;;;;19.83;12.30;;;;;;;;;;5051257;28;20028;-49
2023/07/04 10:05:10;;;;;;;22.67;11.82;;;;;;;;;;5051341;28;20083;-47
2023/07/04 10:07:36;;;;;;;19.75;12.25;;;;;;;;;;5051113;28;20021;-46
2023/07/04 10:10:04;;;;;;;21.35;12.68;;;;;;;;;;5051194;28;20021;-50
2023/07/04 10:12:41;;;;;;;19.60;11.95;;;;;;;;;;5050888;28;20578;-47
2023/07/04 10:15:07;;;;;;;19.00;11.65;;;;;;;;;;5051383;28;20119;-51
2023/07/04 10:17:35;;;;;;;17.65;11.90;;;;;;;;;;5052589;28;20029;-49
2023/07/04 10:20:05;;;;;;;18.17;12.02;;;;;;;;;;5055288;28;20029;-52
2023/07/04 10:22:38;;;;;;;20.70;13.05;;;;;;;;;;5055040;28;20135;-51
2023/07/04 10:25:07;;;;;;;21.15;12.00;;;;;;;;;;5054059;28;20021;-51
2023/07/04 10:27:37;;;;;;;22.70;12.68;;;;;;;;;;5049740;28;20143;-48
2023/07/04 10:30:06;;;;;;;22.73;11.93;;;;;;;;;;5054763;28;20021;-51
2023/07/04 10:32:35;;;;;;;17.50;11.80;;;;;;;;;;5043766;28;20029;-48
2023/07/04 10:35:01;;;;;;;19.10;11.77;;;;;;;;;;5034670;28;20132;-48
2023/07/04 10:37:33;;;;;;;20.83;12.35;;;;;;;;;;5034744;28;20026;-46
2023/07/04 10:40:02;;;;;;;20.70;13.10;;;;;;;;;;5034606;28;20028;-50
2023/07/04 10:42:32;;;;;;;19.05;12.20;;;;;;;;;;5034408;28;20065;-46
2023/07/04 10:44:58;;;;;;;21.20;12.85;;;;;;;;;;5046921;28;20106;-49
2023/07/04 10:47:27;;;;;;;17.75;12.10;;;;;;;;;;5054515;28;20033;-50
2023/07/04 10:49:52;;;;;;;;;;;;;;;;;;5020428;28;20059;-46
2023/07/04 10:52:20;;;;;;;20.55;12.65;;;;;;;;;;5034318;28;19912;-48
2023/07/04 10:54:46;;;;;;;21.50;12.25;;;;;;;;;;5034099;28;20495;-48
2023/07/04 10:57:24;;;;;;;23.02;12.73;;;;;;;;;;5034706;28;20033;-48
2023/07/04 10:59:52;;;;;;;23.42;12.43;;;;;;;;;;5034764;28;20026;-51
2023/07/04 11:02:26;;;;;;;26.60;13.20;;;;;;;;;;5042876;28;20040;-50
2023/07/04 11:04:54;;;;;;;21.75;13.40;;;;;;;;;;5053917;28;20497;-51
2023/07/04 11:07:20;;;;;;;;;;;;;;;;;;5054943;28;20021;-50
2023/07/04 11:09:47;;;;;;;21.55;12.57;;;;;;;;;;5036712;28;19905;-51
2023/07/04 11:12:15;;;;;;;21.55;12.07;;;;;;;;;;5054092;28;20017;-51
2023/07/04 11:14:42;;;;;;;24.10;12.75;;;;;;;;;;5035720;28;20125;-51
2023/07/04 11:17:12;;;;;;;19.83;11.95;;;;;;;;;;5053371;28;20625;-54
2023/07/04 11:19:52;;;;;;;24.40;12.75;;;;;;;;;;5053709;28;20166;-52
2023/07/04 11:22:19;;;;;;;23.33;13.82;;;;;;;;;;5053624;28;20028;-51
2023/07/04 11:24:45;;;;;;;21.63;13.15;;;;;;;;;;5053524;28;20029;-51
2023/07/04 11:27:13;;;;;;;20.63;13.40;;;;;;;;;;5053639;28;20023;-48
2023/07/04 11:29:47;;;;;;;22.20;13.40;;;;;;;;;;5053493;28;20028;-50
2023/07/04 11:32:16;;;;;;;20.75;13.35;;;;;;;;;;5052719;28;20017;-54
2023/07/04 11:34:50;;;;;;;17.45;12.93;;;;;;;;;;5052826;28;20108;-49
2023/07/04 11:37:23;;;;;;;19.75;13.38;;;;;;;;;;5053321;28;20025;-47
2023/07/04 11:39:54;;;;;;;22.23;13.68;;;;;;;;;;5053670;28;20025;-52
2023/07/04 11:42:22;;;;;;;18.55;14.43;;;;;;;;;;5053411;28;20108;-50
2023/07/04 11:44:56;;;;;;;20.98;13.45;;;;;;;;;;5052777;28;20112;-49
2023/07/04 11:47:41;;;;;;;21.45;13.98;;;;;;;;;;5053394;28;20021;-48
2023/07/04 11:50:10;;;;;;;19.42;13.38;;;;;;;;;;5053728;28;20025;-51
2023/07/04 11:52:38;;;;;;;18.95;13.32;;;;;;;;;;5049210;28;20041;-49
2023/07/04 11:55:09;;;;;;;18.90;12.90;;;;;;;;;;5036656;28;20116;-48
2023/07/04 11:57:54;;;;;;;20.35;13.43;;;;;;;;;;5034203;28;20035;-48
2023/07/04 12:00:32;;;;;;;20.13;13.15;;;;;;;;;;5051364;28;20103;-51
2023/07/04 12:03:18;;;;;;;19.10;12.80;;;;;;;;;;5032169;28;20031;-50
2023/07/04 12:05:54;;;;;;;20.77;13.13;;;;;;;;;;5051068;28;20346;-48
2023/07/04 12:08:29;;;;;;;19.35;13.18;;;;;;;;;;5051515;28;20029;-49
2023/07/04 12:11:00;;;;;;;19.33;13.52;;;;;;;;;;5051733;28;20075;-47
2023/07/04 12:13:28;;;;;;;19.92;13.63;;;;;;;;;;5051659;28;20017;-49
2023/07/04 12:15:56;;;;;;;20.92;13.52;;;;;;;;;;5051380;28;20029;-49
2023/07/04 12:18:26;;;;;;;18.45;13.02;;;;;;;;;;5050499;28;20040;-47
2023/07/04 12:20:53;;;;;;;23.52;14.05;;;;;;;;;;5044534;28;20493;-48
2023/07/04 12:23:19;;;;;;;20.25;13.68;;;;;;;;;;5043069;28;20108;-50
2023/07/04 12:25:49;;;;;;;18.90;13.55;;;;;;;;;;5050979;28;20539;-46
2023/07/04 12:28:16;;;;;;;18.38;12.88;;;;;;;;;;5042943;28;20112;-47
2023/07/04 12:30:47;;;;;;;20.02;13.57;;;;;;;;;;5037604;28;20025;-48
2023/07/04 12:33:20;;;;;;;21.70;13.70;;;;;;;;;;5031599;28;20026;-49
2023/07/04 12:35:54;;;;;;;20.17;13.10;;;;;;;;;;5031469;28;20464;-52
2023/07/04 12:38:21;;;;;;;21.95;13.50;;;;;;;;;;5031655;28;20022;-52
2023/07/04 12:40:48;;;;;;;20.42;13.50;;;;;;;;;;5012895;28;20120;-49
2023/07/04 12:43:15;;;;;;;21.77;14.27;;;;;;;;;;5031070;28;20101;-50
2023/07/04 12:45:41;;;;;;;21.27;14.00;;;;;;;;;;5030770;28;20380;-50
2023/07/04 12:48:08;;;;;;;19.20;13.70;;;;;;;;;;5030923;28;20470;-45
2023/07/04 12:50:34;;;;;;;19.85;12.65;;;;;;;;;;5030884;28;20096;-51
2023/07/04 12:53:01;;;;;;;19.67;12.98;;;;;;;;;;4991881;28;1128843;-47
2023/07/04 12:55:30;;;;;;;20.30;13.07;;;;;;;;;;5030825;28;20029;-50
2023/07/04 12:57:56;;;;;;;20.95;13.88;;;;;;;;;;5031125;28;20025;-47
2023/07/04 13:00:30;;;;;;;20.30;13.82;;;;;;;;;;5031440;28;20021;-47
2023/07/04 13:03:10;;;;;;;20.85;13.45;;;;;;;;;;5013642;28;20037;-48
2023/07/04 13:05:39;;;;;;;19.48;14.10;;;;;;;;;;5031419;28;20025;-49
2023/07/04 13:08:09;;;;;;;20.13;13.77;;;;;;;;;;5031363;28;20032;-48
2023/07/04 13:10:36;;;;;;;20.02;13.90;;;;;;;;;;5030863;28;20018;-47
2023/07/04 13:13:02;;;;;;;19.65;13.00;;;;;;;;;;5031350;28;20033;-49
2023/07/04 13:15:30;;;;;;;18.67;13.82;;;;;;;;;;5031157;28;20481;-48
2023/07/04 13:17:58;;;;;;;20.27;13.90;;;;;;;;;;5031422;28;20554;-45
2023/07/04 13:20:24;;;;;;;18.88;13.20;;;;;;;;;;5013582;28;20026;-46
2023/07/04 13:22:50;;;;;;;18.15;13.45;;;;;;;;;;5031403;28;20444;-47
2023/07/04 13:25:27;;;;;;;18.50;13.52;;;;;;;;;;5030602;28;20026;-47
2023/07/04 13:28:03;;;;;;;20.75;14.25;;;;;;;;;;5012607;28;20414;-48
2023/07/04 13:30:29;;;;;;;21.33;13.95;;;;;;;;;;5031056;28;20381;-54
2023/07/04 13:32:55;;;;;;;18.13;13.40;;;;;;;;;;5031064;28;20025;-49
2023/07/04 13:35:39;;;;;;;18.88;13.48;;;;;;;;;;5031000;28;20598;-46
2023/07/04 13:38:05;;;;;;;18.88;14.02;;;;;;;;;;5031332;28;20038;-50
2023/07/04 13:40:32;;;;;;;18.13;13.55;;;;;;;;;;5031218;28;20021;-50
2023/07/04 13:43:02;;;;;;;21.02;13.40;;;;;;;;;;5031169;28;20034;-47
2023/07/04 13:45:28;;;;;;;19.25;13.38;;;;;;;;;;5030807;28;20025;-54
2023/07/04 13:47:54;;;;;;;18.77;12.90;;;;;;;;;;5031329;28;20021;-50
2023/07/04 13:50:20;;;;;;;23.17;13.43;;;;;;;;;;5031428;28;20017;-52
2023/07/04 13:52:46;;;;;;;17.33;12.80;;;;;;;;;;5030411;28;20043;-45
2023/07/04 13:55:12;;;;;;;20.58;13.63;;;;;;;;;;5031045;28;20022;-51
2023/07/04 13:57:38;;;;;;;18.52;13.52;;;;;;;;;;5031032;28;20104;-51
2023/07/04 14:00:05;;;;;;;19.77;13.55;;;;;;;;;;5031003;28;20079;-49
2023/07/04 14:02:31;;;;;;;18.77;13.13;;;;;;;;;;5030980;28;20028;-46
2023/07/04 14:04:57;;;;;;;18.25;13.68;;;;;;;;;;5031519;28;20040;-46
2023/07/04 14:07:23;;;;;;;20.35;13.70;;;;;;;;;;5030767;28;20022;-48
2023/07/04 14:09:49;;;;;;;20.20;13.13;;;;;;;;;;5031243;28;20470;-48
2023/07/04 14:12:15;;;;;;;21.75;13.77;;;;;;;;;;5031065;28;20026;-46
2023/07/04 14:14:42;;;;;;;20.83;13.80;;;;;;;;;;5030879;28;20018;-49
2023/07/04 14:17:08;;;;;;;22.70;13.97;;;;;;;;;;5030960;28;20025;-49
2023/07/04 14:19:34;;;;;;;18.45;13.68;;;;;;;;;;5030966;28;20018;-47
2023/07/04 14:22:00;;;;;;;19.92;13.75;;;;;;;;;;5038642;28;20021;-48
2023/07/04 14:24:26;;;;;;;19.98;13.70;;;;;;;;;;5047700;28;20025;-51